Time,TemperatureF,DewpointF,PressureIn,WindDirection,WindDirectionDegrees,WindSpeedMPH,WindSpeedGustMPH,Humidity,HourlyPrecipIn,Conditions,Clouds,dailyrainin,SoftwareType,DateUTC
2014-08-29 00:07:00,58.6,56.6,29.96,North,0,0.0,0.0,93,0.00,,,0.00,open2300-1.11,2014-08-29 07:07:00,
2014-08-29 00:22:00,58.5,56.4,29.96,NW,315,0.0,0.0,93,0.00,,,0.00,open2300-1.11,2014-08-29 07:22:00,
2014-08-29 00:37:00,58.6,56.6,29.95,NNE,22,0.0,0.0,93,0.00,,,0.00,open2300-1.11,2014-08-29 07:37:00,
2014-08-29 00:52:00,59.0,57.3,29.96,NNW,337,0.0,0.0,94,0.00,,,0.00,open2300-1.11,2014-08-29 07:52:00,
2014-08-29 01:07:00,59.4,57.6,29.96,NNW,337,0.0,0.0,94,0.00,,,0.00,open2300-1.11,2014-08-29 08:07:00,
2014-08-29 01:22:00,59.5,58.4,29.95,NNW,337,0.0,0.0,96,0.00,,,0.00,open2300-1.11,2014-08-29 08:22:00,
2014-08-29 01:37:00,59.9,58.8,29.95,NNW,337,0.0,0.0,96,0.00,,,0.00,open2300-1.11,2014-08-29 08:37:00,
2014-08-29 01:52:00,59.4,58.2,29.95,WSW,247,0.0,0.0,96,0.00,,,0.00,open2300-1.11,2014-08-29 08:52:00,
2014-08-29 02:07:00,59.4,58.2,29.94,NW,315,0.0,0.0,96,0.00,,,0.00,open2300-1.11,2014-08-29 09:07:00,
2014-08-29 02:22:00,59.4,58.2,29.95,WNW,292,0.0,0.0,96,0.00,,,0.00,open2300-1.11,2014-08-29 09:22:00,
2014-08-29 02:37:00,59.4,58.2,29.94,WSW,247,0.0,0.0,96,0.00,,,0.00,open2300-1.11,2014-08-29 09:37:00,
2014-08-29 02:52:00,59.5,58.4,29.94,NW,315,0.0,0.0,96,0.00,,,0.00,open2300-1.11,2014-08-29 09:52:00,
2014-08-29 03:07:00,59.7,58.6,29.94,WSW,247,0.0,0.0,96,0.00,,,0.00,open2300-1.11,2014-08-29 10:07:00,
2014-08-29 03:22:00,59.5,58.4,29.94,WSW,247,0.0,0.0,96,0.00,,,0.00,open2300-1.11,2014-08-29 10:22:00,
2014-08-29 03:37:00,59.9,58.8,29.93,WSW,247,0.0,0.0,96,0.00,,,0.00,open2300-1.11,2014-08-29 10:37:00,
2014-08-29 03:52:00,59.9,58.8,29.93,WSW,247,0.0,0.0,96,0.00,,,0.00,open2300-1.11,2014-08-29 10:52:00,
2014-08-29 04:07:00,59.7,58.6,29.93,WSW,247,0.0,0.0,96,0.00,,,0.00,open2300-1.11,2014-08-29 11:07:00,
2014-08-29 04:22:00,59.7,58.0,29.93,WSW,247,0.0,0.0,94,0.00,,,0.00,open2300-1.11,2014-08-29 11:22:00,
2014-08-29 04:37:00,59.7,58.0,29.93,NNE,22,0.0,0.0,94,0.00,,,0.00,open2300-1.11,2014-08-29 11:37:00,
2014-08-29 04:52:00,59.7,58.0,29.93,WSW,247,0.0,0.0,94,0.00,,,0.00,open2300-1.11,2014-08-29 11:52:00,
2014-08-29 05:07:00,59.7,57.7,29.93,WNW,292,0.0,0.0,93,0.00,,,0.00,open2300-1.11,2014-08-29 12:07:00,
2014-08-29 05:22:00,59.7,57.7,29.93,WSW,247,0.0,0.0,93,0.00,,,0.00,open2300-1.11,2014-08-29 12:22:00,
2014-08-29 05:37:00,59.9,57.6,29.92,WSW,247,0.0,0.0,92,0.00,,,0.00,open2300-1.11,2014-08-29 12:37:00,
2014-08-29 05:52:00,59.7,57.4,29.92,WNW,292,0.0,0.0,92,0.00,,,0.00,open2300-1.11,2014-08-29 12:52:00,
2014-08-29 06:07:00,59.7,57.4,29.92,WNW,292,0.0,0.0,92,0.00,,,0.00,open2300-1.11,2014-08-29 13:07:00,
2014-08-29 06:22:00,60.4,57.8,29.92,WSW,247,0.0,0.0,91,0.00,,,0.00,open2300-1.11,2014-08-29 13:22:00,
2014-08-29 06:37:00,59.7,57.4,29.91,WSW,247,0.0,0.0,92,0.00,,,0.00,open2300-1.11,2014-08-29 13:37:00,
2014-08-29 06:52:00,60.3,58.0,29.92,WSW,247,0.0,0.0,92,0.00,,,0.00,open2300-1.11,2014-08-29 13:52:00,
2014-08-29 07:07:00,59.9,57.6,29.93,WSW,247,0.0,0.0,92,0.00,,,0.00,open2300-1.11,2014-08-29 14:07:00,
2014-08-29 07:22:00,59.9,57.3,29.93,West,270,0.0,0.0,91,0.00,,,0.00,open2300-1.11,2014-08-29 14:22:00,
2014-08-29 07:37:00,60.3,57.4,29.93,West,270,0.0,0.0,90,0.00,,,0.00,open2300-1.11,2014-08-29 14:37:00,
2014-08-29 07:52:00,60.6,57.4,29.93,WSW,247,0.0,0.0,89,0.00,,,0.00,open2300-1.11,2014-08-29 14:52:00,
2014-08-29 08:07:00,61.0,57.4,29.94,WSW,247,0.0,0.0,88,0.00,,,0.00,open2300-1.11,2014-08-29 15:07:00,
2014-08-29 08:22:00,61.2,57.0,29.94,West,270,0.0,0.0,86,0.00,,,0.00,open2300-1.11,2014-08-29 15:22:00,
2014-08-29 08:37:00,61.9,57.0,29.94,SW,225,0.0,0.0,84,0.00,,,0.00,open2300-1.11,2014-08-29 15:37:00,
2014-08-29 08:52:00,64.9,59.3,29.93,WNW,292,0.0,0.0,82,0.00,,,0.00,open2300-1.11,2014-08-29 15:52:00,
2014-08-29 09:07:00,65.3,56.4,29.93,NNW,337,0.0,0.0,73,0.00,,,0.00,open2300-1.11,2014-08-29 16:07:00,
2014-08-29 09:22:00,64.2,55.4,29.94,WSW,247,0.0,0.0,73,0.00,,,0.00,open2300-1.11,2014-08-29 16:22:00,
2014-08-29 09:37:00,63.7,54.9,29.95,WSW,247,0.0,0.0,73,0.00,,,0.00,open2300-1.11,2014-08-29 16:37:00,
2014-08-29 09:52:00,66.4,58.2,29.94,NNW,337,0.0,0.0,75,0.00,,,0.00,open2300-1.11,2014-08-29 16:52:00,
2014-08-29 10:07:00,69.6,56.5,29.94,SW,225,0.0,0.0,63,0.00,,,0.00,open2300-1.11,2014-08-29 17:07:00,
2014-08-29 10:22:00,71.8,55.2,29.95,NNW,337,0.0,0.0,56,0.00,,,0.00,open2300-1.11,2014-08-29 17:22:00,
2014-08-29 10:37:00,71.2,54.2,29.94,WSW,247,0.0,0.0,55,0.00,,,0.00,open2300-1.11,2014-08-29 17:37:00,
2014-08-29 10:52:00,73.0,53.3,29.93,South,180,0.0,0.0,50,0.00,,,0.00,open2300-1.11,2014-08-29 17:52:00,
2014-08-29 11:07:00,74.1,53.1,29.94,WSW,247,0.0,0.0,48,0.00,,,0.00,open2300-1.11,2014-08-29 18:07:00,
2014-08-29 11:22:00,74.5,52.9,29.93,NNW,337,0.0,0.0,47,0.00,,,0.00,open2300-1.11,2014-08-29 18:22:00,
2014-08-29 11:37:00,77.2,52.9,29.93,WNW,292,0.0,0.0,43,0.00,,,0.00,open2300-1.11,2014-08-29 18:37:00,
2014-08-29 11:52:00,77.7,53.4,29.91,WSW,247,0.0,0.0,43,0.00,,,0.00,open2300-1.11,2014-08-29 18:52:00,
2014-08-29 12:07:00,82.0,51.5,29.91,SW,225,0.0,0.0,35,0.00,,,0.00,open2300-1.11,2014-08-29 19:07:00,
2014-08-29 12:22:00,79.2,50.5,29.91,SW,225,0.0,0.0,37,0.00,,,0.00,open2300-1.11,2014-08-29 19:22:00,
2014-08-29 12:37:00,81.0,52.1,29.89,SE,135,0.0,0.0,37,0.00,,,0.00,open2300-1.11,2014-08-29 19:37:00,
2014-08-29 12:52:00,82.6,50.4,29.88,South,180,0.0,0.0,33,0.00,,,0.00,open2300-1.11,2014-08-29 19:52:00,
2014-08-29 13:07:00,80.6,49.5,29.89,WSW,247,0.0,0.0,34,0.00,,,0.00,open2300-1.11,2014-08-29 20:07:00,
2014-08-29 13:22:00,80.1,51.3,29.90,WSW,247,0.0,0.0,37,0.00,,,0.00,open2300-1.11,2014-08-29 20:22:00,
2014-08-29 13:37:00,81.5,49.5,29.89,WSW,247,0.0,0.0,33,0.00,,,0.00,open2300-1.11,2014-08-29 20:37:00,
2014-08-29 13:52:00,77.2,51.1,29.90,North,0,0.0,0.0,40,0.00,,,0.00,open2300-1.11,2014-08-29 20:52:00,
2014-08-29 14:07:00,76.6,51.2,29.90,NW,315,0.0,0.0,41,0.00,,,0.00,open2300-1.11,2014-08-29 21:07:00,
2014-08-29 14:22:00,76.5,52.2,29.90,North,0,0.0,0.0,43,0.00,,,0.00,open2300-1.11,2014-08-29 21:22:00,
2014-08-29 14:37:00,79.5,53.8,29.90,WSW,247,0.0,0.0,41,0.00,,,0.00,open2300-1.11,2014-08-29 21:37:00,
2014-08-29 14:52:00,79.7,52.6,29.90,WSW,247,0.0,0.0,39,0.00,,,0.00,open2300-1.11,2014-08-29 21:52:00,
2014-08-29 15:07:00,78.8,52.5,29.90,West,270,0.0,0.0,40,0.00,,,0.00,open2300-1.11,2014-08-29 22:07:00,
2014-08-29 15:22:00,79.0,51.9,29.90,WSW,247,0.0,0.0,39,0.00,,,0.00,open2300-1.11,2014-08-29 22:22:00,
2014-08-29 15:37:00,76.5,52.9,29.90,NNW,337,0.0,0.0,44,0.00,,,0.00,open2300-1.11,2014-08-29 22:37:00,
2014-08-29 15:52:00,76.1,51.3,29.89,NNE,22,0.0,0.0,42,0.00,,,0.00,open2300-1.11,2014-08-29 22:52:00,
2014-08-29 16:07:00,78.3,52.7,29.89,NW,315,0.0,0.0,41,0.00,,,0.00,open2300-1.11,2014-08-29 23:07:00,
2014-08-29 16:22:00,81.3,52.4,29.89,NNW,337,0.0,0.0,37,0.00,,,0.00,open2300-1.11,2014-08-29 23:22:00,
2014-08-29 16:37:00,79.5,51.6,29.89,WSW,247,0.0,0.0,38,0.00,,,0.00,open2300-1.11,2014-08-29 23:37:00,
2014-08-29 16:52:00,76.8,51.3,29.89,WSW,247,0.0,0.0,41,0.00,,,0.00,open2300-1.11,2014-08-29 23:52:00,
2014-08-29 17:07:00,74.8,52.0,29.89,WSW,247,0.0,0.0,45,0.00,,,0.00,open2300-1.11,2014-08-30 00:07:00,
2014-08-29 17:22:00,74.3,52.1,29.89,WSW,247,0.0,0.0,46,0.00,,,0.00,open2300-1.11,2014-08-30 00:22:00,
2014-08-29 17:37:00,73.4,51.8,29.89,WSW,247,0.0,0.0,47,0.00,,,0.00,open2300-1.11,2014-08-30 00:37:00,
2014-08-29 17:52:00,72.1,51.9,29.89,SW,225,0.0,0.0,49,0.00,,,0.00,open2300-1.11,2014-08-30 00:52:00,
2014-08-29 18:07:00,71.1,50.9,29.88,SW,225,0.0,0.0,49,0.00,,,0.00,open2300-1.11,2014-08-30 01:07:00,
2014-08-29 18:22:00,70.7,51.2,29.88,SW,225,0.0,0.0,50,0.00,,,0.00,open2300-1.11,2014-08-30 01:22:00,
2014-08-29 18:37:00,68.9,51.5,29.88,WSW,247,0.0,0.0,54,0.00,,,0.00,open2300-1.11,2014-08-30 01:37:00,
2014-08-29 18:52:00,68.2,53.3,29.88,SW,225,0.0,0.0,59,0.00,,,0.00,open2300-1.11,2014-08-30 01:52:00,
2014-08-29 19:07:00,67.6,53.3,29.88,WSW,247,0.0,0.0,60,0.00,,,0.00,open2300-1.11,2014-08-30 02:07:00,
2014-08-29 19:22:00,65.7,52.7,29.88,WSW,247,0.0,0.0,63,0.00,,,0.00,open2300-1.11,2014-08-30 02:22:00,
2014-08-29 19:37:00,64.9,54.5,29.88,WSW,247,0.0,0.0,69,0.00,,,0.00,open2300-1.11,2014-08-30 02:37:00,
2014-08-29 19:52:00,63.9,54.7,29.88,WSW,247,0.0,0.0,72,0.00,,,0.00,open2300-1.11,2014-08-30 02:52:00,
2014-08-29 20:07:00,63.3,55.2,29.89,WSW,247,0.0,0.0,75,0.00,,,0.00,open2300-1.11,2014-08-30 03:07:00,
2014-08-29 20:22:00,62.6,54.9,29.89,SW,225,0.0,0.0,76,0.00,,,0.00,open2300-1.11,2014-08-30 03:22:00,
2014-08-29 20:37:00,62.1,54.7,29.90,SW,225,0.0,0.0,77,0.00,,,0.00,open2300-1.11,2014-08-30 03:37:00,
2014-08-29 20:52:00,61.7,55.5,29.89,SW,225,0.0,0.0,80,0.00,,,0.00,open2300-1.11,2014-08-30 03:52:00,
2014-08-29 21:07:00,61.2,55.7,29.90,SW,225,0.0,0.0,82,0.00,,,0.00,open2300-1.11,2014-08-30 04:07:00,
2014-08-29 21:22:00,61.2,56.0,29.90,SW,225,0.0,0.0,83,0.00,,,0.00,open2300-1.11,2014-08-30 04:22:00,
2014-08-29 21:37:00,60.8,56.0,29.90,SW,225,0.0,0.0,84,0.00,,,0.00,open2300-1.11,2014-08-30 04:37:00,
2014-08-29 21:52:00,60.8,56.6,29.91,SW,225,0.0,0.0,86,0.00,,,0.00,open2300-1.11,2014-08-30 04:52:00,
2014-08-29 22:07:00,60.3,56.1,29.90,SW,225,0.0,0.0,86,0.00,,,0.00,open2300-1.11,2014-08-30 05:07:00,
2014-08-29 22:22:00,59.9,56.0,29.91,SW,225,0.0,0.0,87,0.00,,,0.00,open2300-1.11,2014-08-30 05:22:00,
2014-08-29 22:37:00,60.3,56.7,29.91,WSW,247,0.0,0.0,88,0.00,,,0.00,open2300-1.11,2014-08-30 05:37:00,
2014-08-29 22:52:00,59.7,56.2,29.91,WSW,247,0.0,0.0,88,0.00,,,0.00,open2300-1.11,2014-08-30 05:52:00,